sensor_id;sensor_type;location;lat;lon;timestamp;P1;durP1;ratioP1;P2;durP2;ratioP2
76837;SDS011;65797;47.352;8.164;2024-03-02T02:04:05;3.73;;;3.43;;
76837;SDS011;65797;47.352;8.164;2024-03-02T02:06:32;27.20;;;4.13;;
76837;SDS011;65797;47.352;8.164;2024-03-02T02:08:58;9.17;;;3.80;;
76837;SDS011;65797;47.352;8.164;2024-03-02T02:11:24;43.17;;;5.07;;
76837;SDS011;65797;47.352;8.164;2024-03-02T02:13:50;20.23;;;4.20;;
76837;SDS011;65797;47.352;8.164;2024-03-02T02:16:16;48.53;;;4.60;;
76837;SDS011;65797;47.352;8.164;2024-03-02T02:29:03;20.33;;;4.97;;
76837;SDS011;65797;47.352;8.164;2024-03-02T02:47:01;16.50;;;4.33;;
76837;SDS011;65797;47.352;8.164;2024-03-02T03:04:56;13.13;;;4.53;;
76837;SDS011;65797;47.352;8.164;2024-03-02T03:12:33;5.10;;;4.57;;
76837;SDS011;65797;47.352;8.164;2024-03-02T03:17:35;41.90;;;6.00;;
76837;SDS011;65797;47.352;8.164;2024-03-02T03:20:02;29.97;;;4.90;;
76837;SDS011;65797;47.352;8.164;2024-03-02T03:22:29;14.43;;;4.17;;
76837;SDS011;65797;47.352;8.164;2024-03-02T03:24:56;35.17;;;5.10;;
76837;SDS011;65797;47.352;8.164;2024-03-02T03:27:22;21.33;;;4.90;;
76837;SDS011;65797;47.352;8.164;2024-03-02T03:29:47;27.37;;;5.43;;
76837;SDS011;65797;47.352;8.164;2024-03-02T03:32:13;34.47;;;4.13;;
76837;SDS011;65797;47.352;8.164;2024-03-02T03:34:39;22.43;;;4.53;;
76837;SDS011;65797;47.352;8.164;2024-03-02T03:37:05;27.87;;;5.27;;
76837;SDS011;65797;47.352;8.164;2024-03-02T03:42:06;29.27;;;4.80;;
76837;SDS011;65797;47.352;8.164;2024-03-02T03:44:32;16.77;;;4.73;;
76837;SDS011;65797;47.352;8.164;2024-03-02T03:46:58;15.80;;;4.80;;
76837;SDS011;65797;47.352;8.164;2024-03-02T03:49:25;12.07;;;5.00;;
76837;SDS011;65797;47.352;8.164;2024-03-02T03:54:27;10.03;;;4.30;;
76837;SDS011;65797;47.352;8.164;2024-03-02T04:41:47;19.33;;;4.77;;
76837;SDS011;65797;47.352;8.164;2024-03-02T04:44:13;29.37;;;5.10;;
76837;SDS011;65797;47.352;8.164;2024-03-02T04:49:14;14.03;;;3.70;;
76837;SDS011;65797;47.352;8.164;2024-03-02T04:51:41;13.57;;;4.43;;
76837;SDS011;65797;47.352;8.164;2024-03-02T06:13:52;9.23;;;4.10;;
76837;SDS011;65797;47.352;8.164;2024-03-02T06:16:19;35.77;;;5.50;;
76837;SDS011;65797;47.352;8.164;2024-03-02T06:18:50;41.03;;;5.07;;
76837;SDS011;65797;47.352;8.164;2024-03-02T06:21:42;78.00;;;6.40;;
76837;SDS011;65797;47.352;8.164;2024-03-02T06:42:58;12.53;;;3.87;;
76837;SDS011;65797;47.352;8.164;2024-03-02T06:45:24;6.53;;;3.70;;
76837;SDS011;65797;47.352;8.164;2024-03-02T18:38:02;14.10;;;8.10;;
76837;SDS011;65797;47.352;8.164;2024-03-02T19:16:44;2.27;;;2.07;;
76837;SDS011;65797;47.352;8.164;2024-03-02T20:30:10;3.53;;;3.03;;
76837;SDS011;65797;47.352;8.164;2024-03-02T20:32:37;4.10;;;3.63;;
76837;SDS011;65797;47.352;8.164;2024-03-02T20:35:03;7.33;;;4.77;;
76837;SDS011;65797;47.352;8.164;2024-03-02T20:37:30;19.13;;;9.43;;
76837;SDS011;65797;47.352;8.164;2024-03-02T20:39:55;15.90;;;9.17;;
76837;SDS011;65797;47.352;8.164;2024-03-02T20:42:23;14.20;;;8.23;;
76837;SDS011;65797;47.352;8.164;2024-03-02T20:44:50;8.77;;;5.53;;
76837;SDS011;65797;47.352;8.164;2024-03-02T20:47:16;12.97;;;5.30;;
76837;SDS011;65797;47.352;8.164;2024-03-02T20:49:42;16.23;;;7.97;;
76837;SDS011;65797;47.352;8.164;2024-03-02T20:52:08;16.97;;;8.27;;
76837;SDS011;65797;47.352;8.164;2024-03-02T20:54:34;15.40;;;7.50;;
76837;SDS011;65797;47.352;8.164;2024-03-02T20:57:01;12.20;;;5.83;;
76837;SDS011;65797;47.352;8.164;2024-03-02T20:59:31;8.10;;;5.70;;
76837;SDS011;65797;47.352;8.164;2024-03-02T21:02:00;8.23;;;5.07;;
76837;SDS011;65797;47.352;8.164;2024-03-02T21:04:27;8.83;;;4.80;;
76837;SDS011;65797;47.352;8.164;2024-03-02T21:06:53;8.70;;;5.50;;
76837;SDS011;65797;47.352;8.164;2024-03-02T21:09:18;9.70;;;4.87;;
76837;SDS011;65797;47.352;8.164;2024-03-02T21:11:44;7.50;;;5.07;;
76837;SDS011;65797;47.352;8.164;2024-03-02T21:14:11;8.13;;;5.20;;
76837;SDS011;65797;47.352;8.164;2024-03-02T21:16:37;12.10;;;6.03;;
76837;SDS011;65797;47.352;8.164;2024-03-02T21:19:05;8.90;;;5.07;;
76837;SDS011;65797;47.352;8.164;2024-03-02T21:21:31;11.33;;;5.90;;
76837;SDS011;65797;47.352;8.164;2024-03-02T21:23:57;10.17;;;5.77;;
76837;SDS011;65797;47.352;8.164;2024-03-02T21:26:23;10.97;;;6.03;;
76837;SDS011;65797;47.352;8.164;2024-03-02T21:28:49;11.23;;;6.20;;
76837;SDS011;65797;47.352;8.164;2024-03-02T21:31:17;8.70;;;6.30;;
76837;SDS011;65797;47.352;8.164;2024-03-02T21:33:43;10.90;;;6.17;;
76837;SDS011;65797;47.352;8.164;2024-03-02T21:36:09;16.10;;;7.03;;
76837;SDS011;65797;47.352;8.164;2024-03-02T21:43:43;9.93;;;6.10;;
76837;SDS011;65797;47.352;8.164;2024-03-02T21:46:12;15.50;;;7.93;;
76837;SDS011;65797;47.352;8.164;2024-03-02T21:48:38;9.37;;;5.73;;
76837;SDS011;65797;47.352;8.164;2024-03-02T21:51:04;10.30;;;6.00;;
76837;SDS011;65797;47.352;8.164;2024-03-02T21:53:30;11.33;;;6.97;;
76837;SDS011;65797;47.352;8.164;2024-03-02T21:55:55;10.13;;;6.30;;
76837;SDS011;65797;47.352;8.164;2024-03-02T21:58:21;10.27;;;5.50;;
76837;SDS011;65797;47.352;8.164;2024-03-02T22:00:47;10.17;;;4.73;;
76837;SDS011;65797;47.352;8.164;2024-03-02T22:03:12;7.30;;;4.37;;
76837;SDS011;65797;47.352;8.164;2024-03-02T22:05:38;4.70;;;3.60;;
76837;SDS011;65797;47.352;8.164;2024-03-02T22:08:06;5.17;;;4.00;;
76837;SDS011;65797;47.352;8.164;2024-03-02T22:10:32;5.87;;;4.67;;
76837;SDS011;65797;47.352;8.164;2024-03-02T22:12:58;4.97;;;4.17;;
76837;SDS011;65797;47.352;8.164;2024-03-02T22:15:24;8.27;;;4.77;;
76837;SDS011;65797;47.352;8.164;2024-03-02T22:17:50;9.27;;;4.50;;
76837;SDS011;65797;47.352;8.164;2024-03-02T22:20:16;6.33;;;4.43;;
76837;SDS011;65797;47.352;8.164;2024-03-02T22:22:42;4.80;;;4.30;;
76837;SDS011;65797;47.352;8.164;2024-03-02T22:25:08;5.30;;;4.50;;
76837;SDS011;65797;47.352;8.164;2024-03-02T22:27:34;4.33;;;3.33;;
76837;SDS011;65797;47.352;8.164;2024-03-02T22:30:02;8.73;;;3.90;;
76837;SDS011;65797;47.352;8.164;2024-03-02T22:32:31;4.80;;;3.60;;
76837;SDS011;65797;47.352;8.164;2024-03-02T22:34:57;3.90;;;3.10;;
76837;SDS011;65797;47.352;8.164;2024-03-02T22:37:22;4.27;;;3.07;;
76837;SDS011;65797;47.352;8.164;2024-03-02T22:39:48;3.90;;;3.23;;
76837;SDS011;65797;47.352;8.164;2024-03-02T22:42:14;4.40;;;2.93;;
76837;SDS011;65797;47.352;8.164;2024-03-02T22:44:40;2.80;;;2.50;;
76837;SDS011;65797;47.352;8.164;2024-03-02T22:47:06;3.70;;;2.90;;
76837;SDS011;65797;47.352;8.164;2024-03-02T22:49:31;6.37;;;3.47;;
76837;SDS011;65797;47.352;8.164;2024-03-02T22:51:57;4.20;;;3.00;;
76837;SDS011;65797;47.352;8.164;2024-03-02T22:54:23;2.30;;;2.10;;
76837;SDS011;65797;47.352;8.164;2024-03-02T22:56:48;3.37;;;2.50;;
76837;SDS011;65797;47.352;8.164;2024-03-02T23:49:09;3.30;;;3.00;;
76837;SDS011;65797;47.352;8.164;2024-03-02T23:51:35;3.43;;;3.10;;
76837;SDS011;65797;47.352;8.164;2024-03-02T23:54:01;8.17;;;3.50;;
